createdAt,value
2019-03-20T00:00:19.320Z,-865.95
2019-03-20T00:01:19.654Z,-865.97
2019-03-20T00:02:19.947Z,-864.39
2019-03-20T00:03:20.355Z,-867.60
2019-03-20T00:04:20.588Z,-862.51
2019-03-20T00:05:20.920Z,-864.60
2019-03-20T00:06:21.255Z,-867.04
2019-03-20T00:07:21.517Z,-873.79
2019-03-20T00:08:21.879Z,-877.68
2019-03-20T00:09:22.165Z,-868.23
2019-03-20T00:10:22.479Z,-873.11
2019-03-20T00:11:22.813Z,-874.20
2019-03-20T00:12:23.086Z,-914.93
2019-03-20T00:13:23.429Z,-919.42
2019-03-20T00:14:23.790Z,-924.50
2019-03-20T00:15:24.086Z,-923.39
2019-03-20T00:16:24.394Z,-925.51
2019-03-20T00:17:24.687Z,-915.94
2019-03-20T00:18:25.008Z,-919.66
2019-03-20T00:19:25.317Z,-916.35
2019-03-20T00:20:25.648Z,-913.44
2019-03-20T00:21:25.965Z,-916.71
2019-03-20T00:22:26.293Z,-917.87
2019-03-20T00:23:26.696Z,-925.25
2019-03-20T00:24:26.903Z,-921.72
2019-03-20T00:25:27.218Z,-919.47
2019-03-20T00:26:27.548Z,-922.23
2019-03-20T00:27:27.846Z,-929.17
2019-03-20T00:28:28.193Z,-926.17
2019-03-20T00:29:28.461Z,-929.16
2019-03-20T00:30:28.789Z,-927.78
2019-03-20T00:31:29.226Z,-927.13
2019-03-20T00:32:29.412Z,-925.71
2019-03-20T00:33:29.762Z,-926.38
2019-03-20T00:34:30.031Z,-931.68
2019-03-20T00:35:30.363Z,-930.05
2019-03-20T00:36:30.692Z,-927.54
2019-03-20T00:37:31.032Z,-920.84
2019-03-20T00:38:31.339Z,-914.58
2019-03-20T00:39:31.653Z,-916.13
2019-03-20T00:40:31.904Z,-918.23
2019-03-20T00:41:32.251Z,-917.37
2019-03-20T00:42:32.547Z,-914.11
2019-03-20T00:43:32.884Z,-911.30
2019-03-20T00:44:33.178Z,-915.09
2019-03-20T00:45:33.475Z,-917.78
2019-03-20T00:46:33.823Z,-921.77
2019-03-20T00:47:34.221Z,-922.75
2019-03-20T00:48:34.692Z,-923.10
2019-03-20T00:49:34.768Z,-926.16
2019-03-20T00:50:35.082Z,-925.15
2019-03-20T00:51:35.394Z,-924.15
2019-03-20T00:52:35.695Z,-924.26
2019-03-20T00:53:36.052Z,-923.56
2019-03-20T00:54:36.365Z,-919.03
2019-03-20T00:55:36.710Z,-924.41
2019-03-20T00:56:37.024Z,-924.95
2019-03-20T00:57:37.289Z,-925.53
2019-03-20T00:58:39.583Z,-931.19
2019-03-20T00:59:37.949Z,-925.56
2019-03-20T01:00:38.251Z,-933.03
2019-03-20T01:01:38.580Z,-929.57
2019-03-20T01:02:38.876Z,-933.11
2019-03-20T01:03:39.194Z,-927.99
2019-03-20T01:04:39.658Z,-928.07
2019-03-20T01:05:39.820Z,-928.75
2019-03-20T01:06:40.152Z,-934.48
2019-03-20T01:07:40.435Z,-930.07
2019-03-20T01:08:40.760Z,-931.13
2019-03-20T01:09:41.105Z,-934.07
2019-03-20T01:10:41.401Z,-935.76
2019-03-20T01:11:41.736Z,-938.23
2019-03-20T01:12:42.147Z,-931.47
2019-03-20T01:13:42.339Z,-936.46
2019-03-20T01:14:42.695Z,-933.91
2019-03-20T01:15:42.983Z,-943.57
2019-03-20T01:16:43.314Z,-936.70
2019-03-20T01:17:43.619Z,-931.75
2019-03-20T01:18:43.909Z,-933.51
2019-03-20T01:19:44.252Z,-938.00
2019-03-20T01:20:44.601Z,-934.38
2019-03-20T01:21:44.872Z,-934.62
2019-03-20T01:22:45.175Z,-932.68
2019-03-20T01:23:45.544Z,-926.79
2019-03-20T01:24:45.827Z,-930.28
2019-03-20T01:25:46.108Z,-924.59
2019-03-20T01:26:46.448Z,-924.56
2019-03-20T01:27:46.749Z,-929.19
2019-03-20T01:28:47.095Z,-925.25
2019-03-20T01:29:47.381Z,-926.17
2019-03-20T01:30:47.662Z,-932.14
2019-03-20T01:31:48.016Z,-922.71
2019-03-20T01:32:48.316Z,-917.22
2019-03-20T01:33:48.638Z,-931.99
2019-03-20T01:34:48.989Z,-933.45
2019-03-20T01:35:49.268Z,-934.17
2019-03-20T01:36:49.614Z,-925.45
2019-03-20T01:37:49.971Z,-929.57
2019-03-20T01:38:50.238Z,-931.47
2019-03-20T01:39:50.540Z,-926.14
2019-03-20T01:40:50.844Z,-931.25
2019-03-20T01:41:51.160Z,-928.05
2019-03-20T01:42:51.471Z,-933.02
2019-03-20T01:43:51.838Z,-932.66
2019-03-20T01:44:52.135Z,-933.46
2019-03-20T01:45:52.549Z,-934.21
2019-03-20T01:46:52.727Z,-933.34
2019-03-20T01:47:53.054Z,-931.88
2019-03-20T01:48:53.373Z,-925.96
2019-03-20T01:49:53.715Z,-932.54
2019-03-20T01:50:54.003Z,-926.73
2019-03-20T01:51:54.310Z,-935.08
2019-03-20T01:52:54.618Z,-934.83
2019-03-20T01:53:55.067Z,-935.28
2019-03-20T01:54:55.271Z,-935.35
2019-03-20T01:55:55.566Z,-934.30
2019-03-20T01:56:55.877Z,-937.80
2019-03-20T01:57:56.190Z,-933.94
2019-03-20T01:58:56.506Z,-933.16
2019-03-20T01:59:56.869Z,-935.69
2019-03-20T02:00:57.155Z,-935.39
2019-03-20T02:01:57.501Z,-932.74
2019-03-20T02:02:57.783Z,-930.48
2019-03-20T02:03:58.069Z,-935.73
2019-03-20T02:04:58.425Z,-931.52
2019-03-20T02:05:58.728Z,-934.33
2019-03-20T02:06:59.039Z,-930.01
2019-03-20T02:07:59.370Z,-930.23
2019-03-20T02:08:59.673Z,-937.19
2019-03-20T02:10:00.030Z,-934.13
2019-03-20T02:11:00.346Z,-938.11
2019-03-20T02:12:00.622Z,-937.35
2019-03-20T02:13:00.948Z,-937.97
2019-03-20T02:14:01.254Z,-933.45
2019-03-20T02:15:01.594Z,-934.12
2019-03-20T02:16:01.870Z,-930.43
2019-03-20T02:17:02.192Z,-927.97
2019-03-20T02:18:02.546Z,-933.25
2019-03-20T02:19:02.916Z,-944.43
2019-03-20T02:20:03.151Z,-941.91
2019-03-20T02:21:03.435Z,-933.76
2019-03-20T02:22:03.765Z,-941.67
2019-03-20T02:23:04.097Z,-940.82
2019-03-20T02:24:04.396Z,-937.42
2019-03-20T02:25:04.736Z,-939.25
2019-03-20T02:26:05.007Z,-940.98
2019-03-20T02:27:05.455Z,-936.35
2019-03-20T02:28:05.931Z,-936.74
2019-03-20T02:29:05.994Z,-940.79
2019-03-20T02:30:06.336Z,-940.40
2019-03-20T02:31:06.628Z,-938.12
2019-03-20T02:32:06.924Z,-940.20
2019-03-20T02:33:07.270Z,-937.11
2019-03-20T02:34:07.569Z,-940.12
2019-03-20T02:35:07.984Z,-889.19
2019-03-20T02:36:08.177Z,-886.85
2019-03-20T02:37:08.499Z,-894.41
2019-03-20T02:38:08.827Z,-892.00
2019-03-20T02:39:09.146Z,-892.38
2019-03-20T02:40:09.750Z,-891.07
2019-03-20T02:41:09.779Z,-890.19
2019-03-20T02:42:10.090Z,-892.04
2019-03-20T02:43:10.441Z,-892.26
2019-03-20T02:44:10.698Z,-893.82
2019-03-20T02:45:11.060Z,-893.54
2019-03-20T02:46:11.332Z,-894.85
2019-03-20T02:47:11.655Z,-893.89
2019-03-20T02:48:11.986Z,-897.64
2019-03-20T02:49:12.278Z,-894.84
2019-03-20T02:50:12.652Z,-897.56
2019-03-20T02:51:12.957Z,-898.44
2019-03-20T02:52:13.322Z,-895.75
2019-03-20T02:53:13.562Z,-889.87
2019-03-20T02:54:13.842Z,-896.55
2019-03-20T02:55:14.181Z,-893.39
2019-03-20T02:56:14.486Z,-896.27
2019-03-20T02:57:17.241Z,-898.63
2019-03-20T02:58:15.134Z,-897.01
2019-03-20T02:59:15.442Z,-893.01
2019-03-20T03:00:15.841Z,-900.80
2019-03-20T03:01:16.073Z,-892.13
2019-03-20T03:02:16.387Z,-894.45
2019-03-20T03:03:16.715Z,-897.54
2019-03-20T03:04:17.010Z,-891.66
2019-03-20T03:05:17.321Z,-894.89
2019-03-20T03:06:17.661Z,-891.21
2019-03-20T03:07:17.967Z,-901.16
2019-03-20T03:08:18.415Z,-891.65
2019-03-20T03:09:18.582Z,-892.60
2019-03-20T03:10:18.915Z,-895.55
2019-03-20T03:11:19.221Z,-899.38
2019-03-20T03:12:19.603Z,-898.69
2019-03-20T03:13:19.852Z,-898.32
2019-03-20T03:14:20.150Z,-897.51
2019-03-20T03:15:20.472Z,-899.83
2019-03-20T03:16:20.809Z,-898.91
2019-03-20T03:17:21.083Z,-894.22
2019-03-20T03:18:21.433Z,-899.06
2019-03-20T03:19:21.711Z,-899.65
2019-03-20T03:20:22.036Z,-897.35
2019-03-20T03:21:22.356Z,-898.49
2019-03-20T03:22:22.636Z,-895.79
2019-03-20T03:23:22.984Z,-893.43
2019-03-20T03:24:23.364Z,-892.81
2019-03-20T03:25:23.609Z,-893.55
2019-03-20T03:26:23.935Z,-893.14
2019-03-20T03:27:24.217Z,-890.64
2019-03-20T03:28:24.547Z,-891.71
2019-03-20T03:29:24.864Z,-893.18
2019-03-20T03:30:25.216Z,-895.24
2019-03-20T03:31:25.560Z,-891.57
2019-03-20T03:32:25.824Z,-897.60
2019-03-20T03:33:26.467Z,-898.41
2019-03-20T03:34:26.433Z,-900.78
2019-03-20T03:35:26.781Z,-899.86
2019-03-20T03:36:27.079Z,-899.75
2019-03-20T03:37:27.396Z,-896.46
2019-03-20T03:38:27.710Z,-893.79
2019-03-20T03:39:27.988Z,-893.21
2019-03-20T03:40:28.351Z,-897.70
2019-03-20T03:41:28.751Z,-901.35
2019-03-20T03:42:28.940Z,-895.22
2019-03-20T03:43:29.254Z,-895.35
2019-03-20T03:44:29.581Z,-891.31
2019-03-20T03:45:29.921Z,-891.46
2019-03-20T03:46:30.251Z,-892.94
2019-03-20T03:47:30.546Z,-891.14
2019-03-20T03:48:30.876Z,-895.59
2019-03-20T03:49:31.264Z,-891.10
2019-03-20T03:50:31.677Z,-890.65
2019-03-20T03:51:31.815Z,-890.43
2019-03-20T03:52:32.109Z,-892.99
2019-03-20T03:53:32.459Z,-891.48
2019-03-20T03:54:32.732Z,-891.80
2019-03-20T03:55:33.068Z,-894.08
2019-03-20T03:56:33.378Z,-890.35
2019-03-20T03:57:33.730Z,-899.51
2019-03-20T03:58:33.982Z,-890.06
2019-03-20T03:59:34.296Z,-896.23
2019-03-20T04:00:34.619Z,-893.25
2019-03-20T04:01:34.919Z,-896.98
2019-03-20T04:02:35.236Z,-900.79
2019-03-20T04:03:35.553Z,-894.15
2019-03-20T04:04:35.889Z,-896.26
2019-03-20T04:05:36.244Z,-896.41
2019-03-20T04:06:36.832Z,-898.54
2019-03-20T04:07:36.862Z,-897.20
2019-03-20T04:08:37.184Z,-898.11
2019-03-20T04:09:37.574Z,-894.85
2019-03-20T04:10:37.851Z,-894.73
2019-03-20T04:11:38.192Z,-894.20
2019-03-20T04:12:38.467Z,-893.27
2019-03-20T04:13:38.781Z,-903.19
2019-03-20T04:14:39.316Z,-896.17
2019-03-20T04:15:39.441Z,-889.49
2019-03-20T04:16:39.766Z,-896.82
2019-03-20T04:17:40.023Z,-892.36
2019-03-20T04:18:40.367Z,-896.90
2019-03-20T04:19:40.696Z,-889.37
2019-03-20T04:20:40.993Z,-887.90
2019-03-20T04:21:41.335Z,-893.24
2019-03-20T04:22:41.713Z,-893.17
2019-03-20T04:23:41.952Z,-894.92
2019-03-20T04:24:42.277Z,-891.63
2019-03-20T04:25:42.575Z,-893.10
2019-03-20T04:26:42.920Z,-890.19
2019-03-20T04:27:43.209Z,-896.21
2019-03-20T04:28:43.499Z,-892.55
2019-03-20T04:29:43.840Z,-893.75
2019-03-20T04:30:44.203Z,-893.70
2019-03-20T04:31:44.496Z,-890.58
2019-03-20T04:32:44.774Z,-891.52
2019-03-20T04:33:45.089Z,-890.09
2019-03-20T04:34:45.411Z,-891.38
2019-03-20T04:35:45.719Z,-893.45
2019-03-20T04:36:48.120Z,-890.51
2019-03-20T04:37:46.352Z,-889.91
2019-03-20T04:38:46.702Z,-889.72
2019-03-20T04:39:46.973Z,-888.30
2019-03-20T04:40:47.261Z,-889.67
2019-03-20T04:41:47.631Z,-895.78
2019-03-20T04:42:47.910Z,-886.91
2019-03-20T04:43:48.234Z,-892.10
2019-03-20T04:44:48.565Z,-892.73
2019-03-20T04:45:48.858Z,-894.52
2019-03-20T04:46:49.256Z,-888.16
2019-03-20T04:47:49.551Z,-887.99
2019-03-20T04:48:49.801Z,-891.33
2019-03-20T04:49:50.133Z,-893.33
2019-03-20T04:50:50.429Z,-895.36
2019-03-20T04:51:50.756Z,-890.92
2019-03-20T04:52:51.060Z,-893.43
2019-03-20T04:53:51.389Z,-891.08
2019-03-20T04:54:51.730Z,-895.77
2019-03-20T04:55:52.180Z,-897.70
2019-03-20T04:56:52.357Z,-890.11
2019-03-20T04:57:52.644Z,-891.29
2019-03-20T04:58:52.957Z,-894.75
2019-03-20T04:59:53.298Z,-891.50
2019-03-20T05:00:53.592Z,-893.13
2019-03-20T05:01:53.949Z,-891.25
2019-03-20T05:02:54.214Z,-889.24
2019-03-20T05:03:54.663Z,-887.68
2019-03-20T05:04:54.874Z,-889.26
2019-03-20T05:05:55.179Z,-884.02
2019-03-20T05:06:58.926Z,-881.92
2019-03-20T05:07:55.793Z,-885.71
2019-03-20T05:08:56.110Z,-884.54
2019-03-20T05:09:56.454Z,-888.60
2019-03-20T05:10:56.755Z,-883.88
2019-03-20T05:11:57.128Z,-875.60
2019-03-20T05:12:57.381Z,-881.75
2019-03-20T05:13:57.687Z,-883.09
2019-03-20T05:14:58.043Z,-882.34
2019-03-20T05:15:58.362Z,-876.63
2019-03-20T05:16:58.695Z,-871.70
2019-03-20T05:17:58.993Z,-874.82
2019-03-20T05:18:59.354Z,-877.18
2019-03-20T05:19:59.646Z,-879.99
2019-03-20T05:20:59.935Z,-879.82
2019-03-20T05:22:00.266Z,-879.82
2019-03-20T05:23:00.579Z,-878.30
2019-03-20T05:24:00.867Z,-876.50
2019-03-20T05:25:01.215Z,-871.96
2019-03-20T05:26:01.485Z,-867.56
2019-03-20T05:27:01.843Z,-871.18
2019-03-20T05:28:02.159Z,-869.24
2019-03-20T05:29:02.550Z,-869.32
2019-03-20T05:30:02.774Z,-871.78
2019-03-20T05:31:03.052Z,-864.86
2019-03-20T05:32:03.414Z,-868.36
2019-03-20T05:33:03.781Z,-871.78
2019-03-20T05:34:04.013Z,-869.43
2019-03-20T05:35:04.347Z,-865.29
2019-03-20T05:36:04.636Z,-863.19
2019-03-20T05:37:10.286Z,-847.81
2019-03-20T05:38:06.287Z,-849.17
2019-03-20T05:39:05.607Z,-860.16
2019-03-20T05:40:05.926Z,-876.35
2019-03-20T05:41:06.201Z,-871.08
2019-03-20T05:42:06.554Z,-873.03
2019-03-20T05:43:07.092Z,-875.19
2019-03-20T05:44:07.172Z,-866.72
2019-03-20T05:45:07.553Z,-860.75
2019-03-20T05:46:07.793Z,-864.66
2019-03-20T05:47:08.112Z,-864.73
2019-03-20T05:48:08.437Z,-859.77
2019-03-20T05:49:08.750Z,-863.25
2019-03-20T05:50:09.084Z,-860.05
2019-03-20T05:51:09.378Z,-864.04
2019-03-20T05:52:09.762Z,-856.51
2019-03-20T05:53:10.089Z,-858.29
2019-03-20T05:54:10.304Z,-850.93
2019-03-20T05:55:10.710Z,-854.58
2019-03-20T05:56:10.955Z,-854.33
2019-03-20T05:57:12.527Z,-854.10
2019-03-20T05:58:11.598Z,-854.74
2019-03-20T05:59:11.884Z,-852.57
2019-03-20T06:00:12.217Z,-857.48
2019-03-20T06:01:12.555Z,-857.28
2019-03-20T06:02:12.929Z,-858.74
2019-03-20T06:03:13.178Z,-862.41
2019-03-20T06:04:13.456Z,-867.24
2019-03-20T06:05:13.790Z,-861.29
2019-03-20T06:06:14.105Z,-866.87
2019-03-20T06:07:21.179Z,-867.50
2019-03-20T06:08:15.762Z,-864.85
2019-03-20T06:09:15.059Z,-864.69
2019-03-20T06:10:15.678Z,-863.87
2019-03-20T06:11:15.659Z,-865.47
2019-03-20T06:12:15.975Z,-864.45
2019-03-20T06:13:16.336Z,-870.47
2019-03-20T06:14:16.598Z,-865.02
2019-03-20T06:15:16.919Z,-866.55
2019-03-20T06:16:17.212Z,-862.50
2019-03-20T06:17:17.559Z,-862.38
2019-03-20T06:18:17.987Z,-866.77
2019-03-20T06:19:18.168Z,-866.47
2019-03-20T06:20:18.470Z,-867.10
2019-03-20T06:21:18.782Z,-856.37
2019-03-20T06:22:19.123Z,-851.22
2019-03-20T06:23:19.443Z,-854.43
2019-03-20T06:24:19.749Z,-851.10
2019-03-20T06:25:21.322Z,-858.58
2019-03-20T06:26:20.396Z,-860.19
2019-03-20T06:27:20.703Z,-866.18
2019-03-20T06:28:21.056Z,-865.15
2019-03-20T06:29:21.334Z,-853.86
2019-03-20T06:30:21.643Z,-860.89
2019-03-20T06:31:21.975Z,-857.31
2019-03-20T06:32:22.272Z,-866.49
2019-03-20T06:33:22.621Z,-862.57
2019-03-20T06:34:22.951Z,-859.45
2019-03-20T06:35:23.208Z,-861.48
2019-03-20T06:36:23.554Z,-867.81
2019-03-20T06:37:32.248Z,-862.63
2019-03-20T06:38:25.184Z,-861.18
2019-03-20T06:39:24.481Z,-856.03
2019-03-20T06:40:24.813Z,-858.20
2019-03-20T06:41:25.225Z,-847.67
2019-03-20T06:42:25.471Z,-850.47
2019-03-20T06:43:25.843Z,-854.49
2019-03-20T06:44:26.065Z,-856.32
2019-03-20T06:45:26.396Z,-857.11
2019-03-20T06:46:26.711Z,-851.39
2019-03-20T06:47:26.997Z,-856.72
2019-03-20T06:48:27.362Z,-850.79
2019-03-20T06:49:27.615Z,-849.47
2019-03-20T06:50:27.957Z,-857.24
2019-03-20T06:51:28.418Z,-857.93
2019-03-20T06:52:28.585Z,-857.93
2019-03-20T06:53:28.927Z,-861.84
2019-03-20T06:54:29.187Z,-855.43
2019-03-20T06:55:29.528Z,-862.69
2019-03-20T06:56:29.875Z,-855.44
2019-03-20T06:57:30.174Z,-853.89
2019-03-20T06:58:30.538Z,-854.89
2019-03-20T06:59:30.869Z,-849.65
2019-03-20T07:00:31.097Z,-852.30
2019-03-20T07:01:31.450Z,-854.39
2019-03-20T07:02:31.746Z,-858.51
2019-03-20T07:03:32.102Z,-862.57
2019-03-20T07:04:32.367Z,-853.19
2019-03-20T07:05:32.675Z,-859.79
2019-03-20T07:06:33.021Z,-860.33
2019-03-20T07:07:43.217Z,-858.91
2019-03-20T07:08:34.660Z,-858.09
2019-03-20T07:09:33.950Z,-854.79
2019-03-20T07:10:34.268Z,-859.45
2019-03-20T07:11:34.572Z,-853.51
2019-03-20T07:12:34.890Z,-856.45
2019-03-20T07:13:35.500Z,-857.76
2019-03-20T07:14:35.529Z,-852.39
2019-03-20T07:15:35.890Z,-843.98
2019-03-20T07:16:36.199Z,-838.47
2019-03-20T07:17:36.493Z,-847.94
2019-03-20T07:18:36.853Z,-838.13
2019-03-20T07:19:37.123Z,-848.52
2019-03-20T07:20:37.672Z,-844.91
2019-03-20T07:21:37.766Z,-847.27
2019-03-20T07:22:38.057Z,-847.20
2019-03-20T07:23:38.409Z,-848.43
2019-03-20T07:24:38.807Z,-850.52
2019-03-20T07:25:39.013Z,-854.73
2019-03-20T07:26:39.349Z,-850.37
2019-03-20T07:27:39.632Z,-845.48
2019-03-20T07:28:39.970Z,-852.91
2019-03-20T07:29:40.286Z,-853.82
2019-03-20T07:30:40.596Z,-849.39
2019-03-20T07:31:40.926Z,-848.72
2019-03-20T07:32:41.331Z,-853.27
2019-03-20T07:33:41.573Z,-851.17
2019-03-20T07:34:41.873Z,-853.47
2019-03-20T07:35:42.189Z,-855.65
2019-03-20T07:36:42.518Z,-852.26
2019-03-20T07:37:42.815Z,-848.85
2019-03-20T07:38:43.147Z,-851.06
2019-03-20T07:39:43.442Z,-850.88
2019-03-20T07:40:43.800Z,-850.10
2019-03-20T07:41:44.072Z,-848.47
2019-03-20T07:42:44.373Z,-850.23
2019-03-20T07:43:44.734Z,-851.86
2019-03-20T07:44:45.160Z,-854.74
2019-03-20T07:45:45.318Z,-857.69
2019-03-20T07:46:45.669Z,-850.35
2019-03-20T07:47:46.022Z,-848.72
2019-03-20T07:48:46.329Z,-843.85
2019-03-20T07:49:46.582Z,-848.15
2019-03-20T07:50:46.881Z,-853.48
2019-03-20T07:51:47.226Z,-861.15
2019-03-20T07:52:47.529Z,-851.82
2019-03-20T07:53:47.857Z,-867.16
2019-03-20T07:54:48.178Z,-864.63
2019-03-20T07:55:48.468Z,-835.43
2019-03-20T07:56:48.805Z,-859.40
2019-03-20T07:57:49.170Z,-859.82
2019-03-20T07:58:49.448Z,-856.36
2019-03-20T07:59:49.743Z,-862.09
2019-03-20T08:00:50.040Z,-871.84
2019-03-20T08:01:50.357Z,-871.19
2019-03-20T08:02:50.668Z,-869.29
2019-03-20T08:03:51.018Z,-864.99
2019-03-20T08:04:51.342Z,-858.56
2019-03-20T08:05:51.728Z,-870.61
2019-03-20T08:06:51.952Z,-874.58
2019-03-20T08:07:52.262Z,-871.70
2019-03-20T08:08:52.580Z,-865.74
2019-03-20T08:09:52.922Z,-873.85
2019-03-20T08:10:53.209Z,-866.31
2019-03-20T08:11:53.542Z,-874.25
2019-03-20T08:12:53.819Z,-863.74
2019-03-20T08:13:54.261Z,-877.78
2019-03-20T08:14:54.467Z,-870.98
2019-03-20T08:15:54.768Z,-865.07
2019-03-20T08:16:55.102Z,-857.29
2019-03-20T08:17:55.379Z,-862.01
2019-03-20T08:18:55.714Z,-871.61
2019-03-20T08:19:56.064Z,-873.82
2019-03-20T08:20:56.354Z,-872.34
2019-03-20T08:21:56.716Z,-870.51
2019-03-20T08:22:56.966Z,-880.52
2019-03-20T08:23:57.272Z,-868.90
2019-03-20T08:24:57.631Z,-868.98
2019-03-20T08:25:57.914Z,-867.71
2019-03-20T08:26:58.246Z,-863.50
2019-03-20T08:27:58.539Z,-870.98
2019-03-20T08:28:58.853Z,-884.57
2019-03-20T08:29:59.215Z,-886.56
2019-03-20T08:30:59.503Z,-883.44
2019-03-20T08:31:59.794Z,-883.93
2019-03-20T08:33:00.117Z,-889.16
2019-03-20T08:34:00.434Z,-883.83
2019-03-20T08:35:00.777Z,-876.59
2019-03-20T08:36:01.049Z,-867.11
2019-03-20T08:37:02.338Z,-867.03
2019-03-20T08:38:01.757Z,-872.76
2019-03-20T08:39:02.111Z,-882.87
2019-03-20T08:40:02.362Z,-876.85
2019-03-20T08:41:02.633Z,-880.42
2019-03-20T08:42:02.964Z,-893.66
2019-03-20T08:43:03.296Z,-879.14
2019-03-20T08:44:03.592Z,-884.62
2019-03-20T08:45:03.936Z,-877.94
2019-03-20T08:46:04.221Z,-868.23
2019-03-20T08:47:04.627Z,-865.71
2019-03-20T08:48:04.859Z,-872.57
2019-03-20T08:49:05.207Z,-873.47
2019-03-20T08:50:05.508Z,-883.00
2019-03-20T08:51:05.770Z,-872.89
2019-03-20T08:52:06.097Z,-889.99
2019-03-20T08:53:06.440Z,-866.08
2019-03-20T08:54:06.733Z,-892.57
2019-03-20T08:55:07.124Z,-897.15
2019-03-20T08:56:07.351Z,-871.63
2019-03-20T08:57:07.659Z,-862.22
2019-03-20T08:58:07.999Z,-869.28
2019-03-20T08:59:08.298Z,-880.21
2019-03-20T09:00:08.876Z,-890.29
2019-03-20T09:01:08.923Z,-889.04
2019-03-20T09:02:09.241Z,-883.75
2019-03-20T09:03:09.608Z,-872.58
2019-03-20T09:04:09.851Z,-883.64
2019-03-20T09:05:10.199Z,-891.90
2019-03-20T09:06:10.481Z,-891.56
2019-03-20T09:07:10.796Z,-890.73
2019-03-20T09:08:11.137Z,-897.56
2019-03-20T09:09:11.416Z,-890.68
2019-03-20T09:10:11.781Z,-895.69
2019-03-20T09:11:12.127Z,-888.35
2019-03-20T09:12:12.434Z,-896.66
2019-03-20T09:13:12.730Z,-881.23
2019-03-20T09:14:13.005Z,-881.49
2019-03-20T09:15:13.365Z,-893.34
2019-03-20T09:16:13.668Z,-894.43
2019-03-20T09:17:13.978Z,-894.65
2019-03-20T09:18:14.311Z,-894.32
2019-03-20T09:19:14.616Z,-895.93
2019-03-20T09:20:15.026Z,-886.37
2019-03-20T09:21:15.232Z,-895.38
2019-03-20T09:22:15.549Z,-899.75
2019-03-20T09:23:15.882Z,-901.99
2019-03-20T09:24:16.177Z,-906.24
2019-03-20T09:25:16.509Z,-912.22
2019-03-20T09:26:16.802Z,-903.13
2019-03-20T09:27:17.139Z,-901.90
2019-03-20T09:28:17.576Z,-898.63
2019-03-20T09:29:18.841Z,-898.78
2019-03-20T09:30:18.083Z,-902.28
2019-03-20T09:31:18.391Z,-896.78
2019-03-20T09:32:18.715Z,-898.42
2019-03-20T09:33:19.035Z,-900.62
2019-03-20T09:34:19.335Z,-902.23
2019-03-20T09:35:19.681Z,-902.71
2019-03-20T09:36:19.995Z,-894.68
2019-03-20T09:37:20.257Z,-866.76
2019-03-20T09:38:20.605Z,-887.07
2019-03-20T09:39:20.895Z,-881.14
2019-03-20T09:40:23.358Z,-834.31
2019-03-20T09:41:21.558Z,-862.18
2019-03-20T09:42:21.839Z,-864.68
2019-03-20T09:43:22.186Z,-861.89
2019-03-20T09:44:22.553Z,-887.45
2019-03-20T09:45:22.786Z,-876.95
2019-03-20T09:46:23.139Z,-876.55
2019-03-20T09:47:24.199Z,-875.46
2019-03-20T09:48:23.753Z,-886.24
2019-03-20T09:49:24.070Z,-884.30
2019-03-20T09:50:24.382Z,-894.30
2019-03-20T09:51:24.721Z,-891.20
2019-03-20T09:52:25.023Z,-898.14
2019-03-20T09:53:25.396Z,-889.42
2019-03-20T09:54:25.637Z,-884.93
2019-03-20T09:55:25.950Z,-890.87
2019-03-20T09:56:26.291Z,-909.24
2019-03-20T09:57:26.581Z,-904.51
2019-03-20T09:58:26.916Z,-896.42
2019-03-20T09:59:27.191Z,-895.14
2019-03-20T10:00:27.536Z,-894.62
2019-03-20T10:01:27.984Z,-888.32
2019-03-20T10:02:28.148Z,-873.50
2019-03-20T10:03:28.463Z,-884.58
2019-03-20T10:04:28.762Z,-890.56
2019-03-20T10:05:29.094Z,-890.43
2019-03-20T10:06:30.243Z,-897.07
2019-03-20T10:07:29.728Z,-894.76
2019-03-20T10:08:30.052Z,-909.88
2019-03-20T10:09:30.448Z,-896.59
2019-03-20T10:10:30.663Z,-898.07
2019-03-20T10:11:30.999Z,-907.12
2019-03-20T10:12:31.287Z,-900.87
2019-03-20T10:13:31.620Z,-894.88
2019-03-20T10:14:31.917Z,-886.16
2019-03-20T10:15:32.215Z,-912.27
2019-03-20T10:16:32.565Z,-913.39
2019-03-20T10:17:32.928Z,-910.10
2019-03-20T10:18:33.186Z,-914.71
2019-03-20T10:19:33.498Z,-905.88
2019-03-20T10:20:33.806Z,-908.71
2019-03-20T10:21:34.134Z,-913.15
2019-03-20T10:22:34.432Z,-904.20
2019-03-20T10:23:34.779Z,-893.22
2019-03-20T10:24:35.096Z,-908.52
2019-03-20T10:25:43.884Z,-910.11
2019-03-20T10:26:36.758Z,-903.00
2019-03-20T10:27:36.033Z,-902.77
2019-03-20T10:28:36.382Z,-877.11
2019-03-20T10:29:36.682Z,-869.75
2019-03-20T10:30:36.988Z,-877.07
2019-03-20T10:31:37.347Z,-899.70
2019-03-20T10:32:37.619Z,-896.39
2019-03-20T10:33:37.960Z,-898.43
2019-03-20T10:34:39.634Z,-899.12
2019-03-20T10:35:38.571Z,-811.98
2019-03-20T10:36:38.918Z,-871.38
2019-03-20T10:37:39.185Z,-890.90
2019-03-20T10:38:39.545Z,-903.26
2019-03-20T10:39:40.078Z,-899.80
2019-03-20T10:40:40.159Z,-904.77
2019-03-20T10:41:40.508Z,-898.89
2019-03-20T10:42:40.919Z,-890.47
2019-03-20T10:43:41.089Z,-892.70
2019-03-20T10:44:41.444Z,-900.48
2019-03-20T10:45:41.826Z,-906.20
2019-03-20T10:46:42.107Z,-902.09
2019-03-20T10:47:47.031Z,-900.42
2019-03-20T10:48:42.722Z,-890.84
2019-03-20T10:49:43.001Z,-893.93
2019-03-20T10:50:43.403Z,-894.58
2019-03-20T10:51:43.706Z,-898.84
2019-03-20T10:52:43.949Z,-895.65
2019-03-20T10:53:44.279Z,-903.43
2019-03-20T10:54:44.595Z,-901.02
2019-03-20T10:55:44.896Z,-885.54
2019-03-20T10:56:45.264Z,-895.50
2019-03-20T10:57:45.539Z,-905.15
2019-03-20T10:58:45.879Z,-898.83
2019-03-20T10:59:46.172Z,-888.37
2019-03-20T11:00:46.472Z,-897.93
2019-03-20T11:01:46.835Z,-892.17
2019-03-20T11:02:47.133Z,-897.98
2019-03-20T11:03:47.443Z,-892.78
2019-03-20T11:04:47.781Z,-894.70
2019-03-20T11:05:48.083Z,-890.20
2019-03-20T11:06:48.467Z,-892.26
2019-03-20T11:07:48.738Z,-880.43
2019-03-20T11:08:49.027Z,-885.53
2019-03-20T11:09:49.357Z,-885.66
2019-03-20T11:10:49.650Z,-894.58
2019-03-20T11:11:50.007Z,-889.64
2019-03-20T11:12:50.283Z,-889.28
2019-03-20T11:13:50.620Z,-896.96
2019-03-20T11:14:50.939Z,-904.49
2019-03-20T11:15:51.378Z,-914.24
2019-03-20T11:16:51.566Z,-905.53
2019-03-20T11:17:51.859Z,-891.67
2019-03-20T11:18:52.179Z,-901.58
2019-03-20T11:19:52.514Z,-894.60
2019-03-20T11:20:53.496Z,-892.47
2019-03-20T11:21:53.139Z,-898.30
2019-03-20T11:22:53.427Z,-881.57
2019-03-20T11:23:53.842Z,-899.30
2019-03-20T11:24:54.067Z,-887.20
2019-03-20T11:25:54.364Z,-890.69
2019-03-20T11:26:54.713Z,-904.99
2019-03-20T11:27:54.993Z,-871.28
2019-03-20T11:28:55.295Z,-911.21
2019-03-20T11:29:55.639Z,-896.54
2019-03-20T11:30:55.949Z,-898.70
2019-03-20T11:31:56.300Z,-889.80
2019-03-20T11:32:56.569Z,-884.51
2019-03-20T11:33:56.853Z,-892.55
2019-03-20T11:34:57.199Z,-901.38
2019-03-20T11:35:57.498Z,-879.38
2019-03-20T11:36:57.833Z,-869.20
2019-03-20T11:37:58.144Z,-894.21
2019-03-20T11:38:58.446Z,-896.52
2019-03-20T11:39:58.795Z,-892.62
2019-03-20T11:40:59.054Z,-891.94
2019-03-20T11:41:59.389Z,-888.53
2019-03-20T11:42:59.701Z,-892.64
2019-03-20T11:44:00.014Z,-886.60
2019-03-20T11:45:00.366Z,-887.88
2019-03-20T11:46:00.618Z,-884.89
2019-03-20T11:47:00.976Z,-899.41
2019-03-20T11:48:01.304Z,-894.24
2019-03-20T11:49:01.703Z,-883.44
2019-03-20T11:50:01.954Z,-890.97
2019-03-20T11:51:02.228Z,-880.12
2019-03-20T11:52:02.575Z,-895.65
2019-03-20T11:53:02.882Z,-882.42
2019-03-20T11:54:03.189Z,-893.43
2019-03-20T11:55:03.524Z,-906.35
2019-03-20T11:56:03.825Z,-891.21
2019-03-20T11:57:04.254Z,-882.11
2019-03-20T11:58:04.463Z,-890.41
2019-03-20T11:59:04.756Z,-907.44
2019-03-20T12:00:05.091Z,-903.03
2019-03-20T12:01:05.389Z,-895.73
2019-03-20T12:02:05.685Z,-892.68
2019-03-20T12:03:06.047Z,-885.92
2019-03-20T12:04:06.353Z,-903.22
2019-03-20T12:05:06.742Z,-890.62
2019-03-20T12:06:06.969Z,-889.01
2019-03-20T12:07:07.271Z,-892.81
2019-03-20T12:08:07.629Z,-897.60
2019-03-20T12:09:07.917Z,-900.90